Kezdőlap
METAR-TAF:

METAR-TAF

Repülőterek :

MH 59. Szentgyörgyi Dezső repülőbázis

Kecskemét, Magyarország

földrajzi szélesség: 46-55N, földrajzi hosszúság: 019-45E, magasság: 113 m

Jelenlegi meteorológiai megfigyelések

A jelentés 47 perccel ezelõtt készült, 09:15 UTC
Különbözõ irányokból fújó szél 4 kt
Hőmérséklet 27°C
Páratartalom 54%
Légköri nyomás 1021 hPa
Látótávolság 10 km, vagy több
Kevés felhő 4400 lábon

METAR: LHKE 280915Z VRB04KT 9999 FEW044 27/17 Q1021 NOSIG RMK BLU

Idő: 12:02 (10:02 UTC)


TAF: hiányzik

Meteorológiai megfigyelések és előrejelzések több, mint 4000 repülőtéren (METAR és TAF jelentéseket).

A térképen piros és sárga pontok jelzik az elérhető meteorológiai állomásokat.

Mozgassa az egeret a pont fölött, hogy megjelenjen az állomás neve.

Azután kattintson az időjárási megfigyelések és előrejelzések megtekintéséhez.

A térkép megváltoztatása: kattintson a fekete keresztel jelölt zöld gombra ráközelítéshez, a vonallal jelölt zöld gombra távolításhoz, vagy a zöld nyilakra a szomszédos térképek eléréséhez.


METAR-TAF: